sensor_id;sensor_type;location;lat;lon;timestamp;P1;durP1;ratioP1;P2;durP2;ratioP2
78931;SDS011;68331;53.362;55.932;2023-06-22T00:00:49;7.65;;;5.25;;
78931;SDS011;68331;53.362;55.932;2023-06-22T00:03:17;9.07;;;5.75;;
78931;SDS011;68331;53.362;55.932;2023-06-22T00:05:45;7.50;;;5.95;;
78931;SDS011;68331;53.362;55.932;2023-06-22T00:08:12;8.85;;;5.93;;
78931;SDS011;68331;53.362;55.932;2023-06-22T00:10:39;7.85;;;4.63;;
78931;SDS011;68331;53.362;55.932;2023-06-22T00:13:06;9.23;;;5.95;;
78931;SDS011;68331;53.362;55.932;2023-06-22T00:15:34;8.38;;;5.57;;
78931;SDS011;68331;53.362;55.932;2023-06-22T00:18:01;10.05;;;5.88;;
78931;SDS011;68331;53.362;55.932;2023-06-22T00:20:27;9.18;;;5.78;;
78931;SDS011;68331;53.362;55.932;2023-06-22T00:22:54;8.18;;;5.57;;
78931;SDS011;68331;53.362;55.932;2023-06-22T00:25:21;9.88;;;5.22;;
78931;SDS011;68331;53.362;55.932;2023-06-22T00:27:47;7.70;;;5.78;;
78931;SDS011;68331;53.362;55.932;2023-06-22T00:30:15;9.43;;;5.90;;
78931;SDS011;68331;53.362;55.932;2023-06-22T00:32:42;9.50;;;6.70;;
78931;SDS011;68331;53.362;55.932;2023-06-22T00:35:09;12.02;;;7.82;;
78931;SDS011;68331;53.362;55.932;2023-06-22T00:37:36;16.00;;;8.38;;
78931;SDS011;68331;53.362;55.932;2023-06-22T00:40:02;18.05;;;8.65;;
78931;SDS011;68331;53.362;55.932;2023-06-22T00:42:30;13.57;;;8.70;;
78931;SDS011;68331;53.362;55.932;2023-06-22T00:44:56;13.43;;;7.80;;
78931;SDS011;68331;53.362;55.932;2023-06-22T00:47:23;12.15;;;7.82;;
78931;SDS011;68331;53.362;55.932;2023-06-22T00:49:52;15.00;;;8.05;;
78931;SDS011;68331;53.362;55.932;2023-06-22T00:52:24;13.98;;;8.10;;
78931;SDS011;68331;53.362;55.932;2023-06-22T00:54:58;13.60;;;6.90;;
78931;SDS011;68331;53.362;55.932;2023-06-22T00:57:30;12.02;;;8.00;;
78931;SDS011;68331;53.362;55.932;2023-06-22T00:59:57;11.80;;;5.85;;
78931;SDS011;68331;53.362;55.932;2023-06-22T01:02:23;14.27;;;7.97;;
78931;SDS011;68331;53.362;55.932;2023-06-22T01:04:51;19.02;;;8.30;;
78931;SDS011;68331;53.362;55.932;2023-06-22T01:12:34;20.00;;;11.10;;
78931;SDS011;68331;53.362;55.932;2023-06-22T01:15:21;20.70;;;11.10;;
78931;SDS011;68331;53.362;55.932;2023-06-22T01:17:53;19.27;;;9.95;;
78931;SDS011;68331;53.362;55.932;2023-06-22T01:20:22;21.92;;;8.98;;
78931;SDS011;68331;53.362;55.932;2023-06-22T01:25:47;18.58;;;10.45;;
78931;SDS011;68331;53.362;55.932;2023-06-22T01:28:45;16.98;;;9.00;;
78931;SDS011;68331;53.362;55.932;2023-06-22T01:31:12;13.52;;;6.82;;
78931;SDS011;68331;53.362;55.932;2023-06-22T01:33:42;15.50;;;8.48;;
78931;SDS011;68331;53.362;55.932;2023-06-22T01:36:13;15.45;;;8.75;;
78931;SDS011;68331;53.362;55.932;2023-06-22T01:38:40;21.95;;;9.30;;
78931;SDS011;68331;53.362;55.932;2023-06-22T01:41:07;20.17;;;8.40;;
78931;SDS011;68331;53.362;55.932;2023-06-22T01:43:34;21.52;;;10.73;;
78931;SDS011;68331;53.362;55.932;2023-06-22T01:46:02;23.02;;;12.10;;
78931;SDS011;68331;53.362;55.932;2023-06-22T01:48:29;26.77;;;14.43;;
78931;SDS011;68331;53.362;55.932;2023-06-22T01:50:57;24.30;;;12.80;;
78931;SDS011;68331;53.362;55.932;2023-06-22T01:53:23;26.45;;;13.13;;
78931;SDS011;68331;53.362;55.932;2023-06-22T01:55:51;25.67;;;10.63;;
78931;SDS011;68331;53.362;55.932;2023-06-22T01:58:17;19.08;;;9.95;;
78931;SDS011;68331;53.362;55.932;2023-06-22T02:00:48;13.75;;;8.05;;
78931;SDS011;68331;53.362;55.932;2023-06-22T02:03:31;15.77;;;10.25;;
78931;SDS011;68331;53.362;55.932;2023-06-22T02:06:03;12.95;;;7.78;;
78931;SDS011;68331;53.362;55.932;2023-06-22T02:08:37;17.88;;;8.85;;
78931;SDS011;68331;53.362;55.932;2023-06-22T02:11:08;15.07;;;8.98;;
78931;SDS011;68331;53.362;55.932;2023-06-22T02:13:37;15.10;;;8.57;;
78931;SDS011;68331;53.362;55.932;2023-06-22T02:16:12;17.63;;;8.90;;
78931;SDS011;68331;53.362;55.932;2023-06-22T02:18:47;19.95;;;8.75;;
78931;SDS011;68331;53.362;55.932;2023-06-22T02:21:16;20.38;;;9.15;;
78931;SDS011;68331;53.362;55.932;2023-06-22T02:23:43;21.75;;;10.95;;
78931;SDS011;68331;53.362;55.932;2023-06-22T02:26:09;27.27;;;11.50;;
78931;SDS011;68331;53.362;55.932;2023-06-22T02:28:35;26.35;;;12.18;;
78931;SDS011;68331;53.362;55.932;2023-06-22T02:31:01;20.40;;;10.00;;
78931;SDS011;68331;53.362;55.932;2023-06-22T02:33:27;12.98;;;7.13;;
78931;SDS011;68331;53.362;55.932;2023-06-22T02:35:54;27.63;;;13.57;;
78931;SDS011;68331;53.362;55.932;2023-06-22T02:38:21;24.23;;;11.27;;
78931;SDS011;68331;53.362;55.932;2023-06-22T02:40:51;21.63;;;13.20;;
78931;SDS011;68331;53.362;55.932;2023-06-22T02:43:18;17.42;;;10.40;;
78931;SDS011;68331;53.362;55.932;2023-06-22T02:45:44;21.13;;;11.35;;
78931;SDS011;68331;53.362;55.932;2023-06-22T02:48:11;18.10;;;11.63;;
78931;SDS011;68331;53.362;55.932;2023-06-22T02:50:38;35.53;;;15.77;;
78931;SDS011;68331;53.362;55.932;2023-06-22T02:53:05;31.05;;;14.80;;
78931;SDS011;68331;53.362;55.932;2023-06-22T02:55:35;25.35;;;15.13;;
78931;SDS011;68331;53.362;55.932;2023-06-22T02:58:01;34.33;;;17.65;;
78931;SDS011;68331;53.362;55.932;2023-06-22T03:00:33;32.92;;;16.55;;
78931;SDS011;68331;53.362;55.932;2023-06-22T03:03:00;28.35;;;14.18;;
78931;SDS011;68331;53.362;55.932;2023-06-22T03:05:26;32.42;;;15.65;;
78931;SDS011;68331;53.362;55.932;2023-06-22T03:07:53;28.42;;;15.40;;
78931;SDS011;68331;53.362;55.932;2023-06-22T03:10:19;28.75;;;13.90;;
78931;SDS011;68331;53.362;55.932;2023-06-22T03:12:45;25.88;;;14.00;;
78931;SDS011;68331;53.362;55.932;2023-06-22T03:15:12;26.98;;;12.38;;
78931;SDS011;68331;53.362;55.932;2023-06-22T03:17:39;28.35;;;13.52;;
78931;SDS011;68331;53.362;55.932;2023-06-22T03:20:08;25.75;;;13.52;;
78931;SDS011;68331;53.362;55.932;2023-06-22T03:22:40;25.30;;;12.60;;
78931;SDS011;68331;53.362;55.932;2023-06-22T03:25:08;16.88;;;10.40;;
78931;SDS011;68331;53.362;55.932;2023-06-22T03:27:46;17.67;;;10.63;;
78931;SDS011;68331;53.362;55.932;2023-06-22T03:30:14;24.52;;;11.85;;
78931;SDS011;68331;53.362;55.932;2023-06-22T03:32:40;12.82;;;7.80;;
78931;SDS011;68331;53.362;55.932;2023-06-22T03:35:06;16.50;;;7.35;;
78931;SDS011;68331;53.362;55.932;2023-06-22T03:37:35;14.20;;;7.30;;
78931;SDS011;68331;53.362;55.932;2023-06-22T03:40:02;11.38;;;6.45;;
78931;SDS011;68331;53.362;55.932;2023-06-22T03:42:35;11.48;;;7.18;;
78931;SDS011;68331;53.362;55.932;2023-06-22T03:45:03;11.85;;;5.88;;
78931;SDS011;68331;53.362;55.932;2023-06-22T03:47:34;11.02;;;5.78;;
78931;SDS011;68331;53.362;55.932;2023-06-22T03:50:00;15.35;;;6.22;;
78931;SDS011;68331;53.362;55.932;2023-06-22T03:52:31;8.60;;;6.07;;
78931;SDS011;68331;53.362;55.932;2023-06-22T03:54:58;9.07;;;5.90;;
78931;SDS011;68331;53.362;55.932;2023-06-22T03:57:24;11.48;;;6.25;;
78931;SDS011;68331;53.362;55.932;2023-06-22T03:59:50;11.07;;;6.60;;
78931;SDS011;68331;53.362;55.932;2023-06-22T04:02:16;11.40;;;6.47;;
78931;SDS011;68331;53.362;55.932;2023-06-22T04:04:42;10.43;;;6.35;;
78931;SDS011;68331;53.362;55.932;2023-06-22T04:07:11;10.52;;;6.07;;
78931;SDS011;68331;53.362;55.932;2023-06-22T04:09:37;12.02;;;7.00;;
78931;SDS011;68331;53.362;55.932;2023-06-22T04:12:03;10.52;;;6.38;;
78931;SDS011;68331;53.362;55.932;2023-06-22T04:14:30;10.93;;;5.75;;
78931;SDS011;68331;53.362;55.932;2023-06-22T04:16:56;8.65;;;5.25;;
78931;SDS011;68331;53.362;55.932;2023-06-22T04:19:23;7.30;;;4.70;;
78931;SDS011;68331;53.362;55.932;2023-06-22T04:21:49;10.45;;;5.88;;
78931;SDS011;68331;53.362;55.932;2023-06-22T04:24:15;7.43;;;5.28;;
78931;SDS011;68331;53.362;55.932;2023-06-22T04:26:41;11.25;;;5.78;;
78931;SDS011;68331;53.362;55.932;2023-06-22T04:29:08;10.10;;;5.32;;
78931;SDS011;68331;53.362;55.932;2023-06-22T04:31:37;10.40;;;5.78;;
78931;SDS011;68331;53.362;55.932;2023-06-22T04:34:04;7.80;;;6.15;;
78931;SDS011;68331;53.362;55.932;2023-06-22T04:36:36;10.05;;;6.72;;
78931;SDS011;68331;53.362;55.932;2023-06-22T04:39:05;10.45;;;5.97;;
78931;SDS011;68331;53.362;55.932;2023-06-22T04:41:32;12.55;;;5.45;;
78931;SDS011;68331;53.362;55.932;2023-06-22T04:44:15;10.20;;;5.43;;
78931;SDS011;68331;53.362;55.932;2023-06-22T04:46:57;8.95;;;4.38;;
78931;SDS011;68331;53.362;55.932;2023-06-22T04:49:30;5.78;;;3.35;;
78931;SDS011;68331;53.362;55.932;2023-06-22T04:52:00;15.45;;;9.73;;
78931;SDS011;68331;53.362;55.932;2023-06-22T04:54:31;5.57;;;4.20;;
78931;SDS011;68331;53.362;55.932;2023-06-22T04:56:59;9.65;;;5.78;;
78931;SDS011;68331;53.362;55.932;2023-06-22T04:59:29;9.45;;;6.03;;
78931;SDS011;68331;53.362;55.932;2023-06-22T05:02:00;9.93;;;4.88;;
78931;SDS011;68331;53.362;55.932;2023-06-22T05:04:29;7.88;;;4.72;;
78931;SDS011;68331;53.362;55.932;2023-06-22T05:06:56;6.95;;;4.45;;
78931;SDS011;68331;53.362;55.932;2023-06-22T05:09:24;5.47;;;4.72;;
78931;SDS011;68331;53.362;55.932;2023-06-22T05:11:50;9.18;;;5.70;;
78931;SDS011;68331;53.362;55.932;2023-06-22T05:14:17;12.63;;;7.10;;
78931;SDS011;68331;53.362;55.932;2023-06-22T05:19:11;12.93;;;7.05;;
78931;SDS011;68331;53.362;55.932;2023-06-22T05:21:37;8.88;;;5.75;;
78931;SDS011;68331;53.362;55.932;2023-06-22T05:24:04;10.63;;;5.60;;
78931;SDS011;68331;53.362;55.932;2023-06-22T05:26:30;9.93;;;5.38;;
78931;SDS011;68331;53.362;55.932;2023-06-22T05:28:58;9.50;;;5.70;;
78931;SDS011;68331;53.362;55.932;2023-06-22T05:31:28;5.55;;;3.83;;
78931;SDS011;68331;53.362;55.932;2023-06-22T05:33:55;7.55;;;2.95;;
78931;SDS011;68331;53.362;55.932;2023-06-22T05:36:22;5.70;;;3.80;;
78931;SDS011;68331;53.362;55.932;2023-06-22T05:38:51;6.90;;;3.33;;
78931;SDS011;68331;53.362;55.932;2023-06-22T05:41:18;6.07;;;3.40;;
78931;SDS011;68331;53.362;55.932;2023-06-22T05:43:44;16.48;;;4.65;;
78931;SDS011;68331;53.362;55.932;2023-06-22T05:46:10;4.65;;;2.85;;
78931;SDS011;68331;53.362;55.932;2023-06-22T05:48:36;7.30;;;4.03;;
78931;SDS011;68331;53.362;55.932;2023-06-22T05:51:02;4.38;;;3.17;;
78931;SDS011;68331;53.362;55.932;2023-06-22T05:53:28;7.43;;;3.47;;
78931;SDS011;68331;53.362;55.932;2023-06-22T05:55:54;4.22;;;3.60;;
78931;SDS011;68331;53.362;55.932;2023-06-22T05:58:20;6.03;;;3.50;;
78931;SDS011;68331;53.362;55.932;2023-06-22T06:00:46;5.57;;;3.67;;
78931;SDS011;68331;53.362;55.932;2023-06-22T06:03:13;6.50;;;3.47;;
78931;SDS011;68331;53.362;55.932;2023-06-22T06:05:43;7.57;;;4.70;;
78931;SDS011;68331;53.362;55.932;2023-06-22T06:08:10;6.63;;;4.18;;
78931;SDS011;68331;53.362;55.932;2023-06-22T06:10:36;14.90;;;4.20;;
78931;SDS011;68331;53.362;55.932;2023-06-22T06:13:03;10.48;;;3.97;;
78931;SDS011;68331;53.362;55.932;2023-06-22T06:15:30;9.40;;;4.32;;
78931;SDS011;68331;53.362;55.932;2023-06-22T06:17:57;7.70;;;4.40;;
78931;SDS011;68331;53.362;55.932;2023-06-22T06:20:24;9.43;;;4.40;;
78931;SDS011;68331;53.362;55.932;2023-06-22T06:22:51;9.13;;;5.20;;
78931;SDS011;68331;53.362;55.932;2023-06-22T06:25:17;8.32;;;5.30;;
78931;SDS011;68331;53.362;55.932;2023-06-22T06:27:46;7.90;;;4.25;;
78931;SDS011;68331;53.362;55.932;2023-06-22T06:30:12;10.13;;;4.50;;
78931;SDS011;68331;53.362;55.932;2023-06-22T06:32:41;7.25;;;4.22;;
78931;SDS011;68331;53.362;55.932;2023-06-22T06:35:07;5.78;;;4.47;;
78931;SDS011;68331;53.362;55.932;2023-06-22T06:37:42;10.55;;;4.95;;
78931;SDS011;68331;53.362;55.932;2023-06-22T06:40:10;9.35;;;3.90;;
78931;SDS011;68331;53.362;55.932;2023-06-22T06:42:37;5.22;;;3.38;;
78931;SDS011;68331;53.362;55.932;2023-06-22T06:45:07;4.13;;;3.00;;
78931;SDS011;68331;53.362;55.932;2023-06-22T06:47:35;6.43;;;4.47;;
78931;SDS011;68331;53.362;55.932;2023-06-22T06:50:01;7.80;;;4.28;;
78931;SDS011;68331;53.362;55.932;2023-06-22T06:52:30;5.47;;;3.35;;
78931;SDS011;68331;53.362;55.932;2023-06-22T06:54:56;5.07;;;2.95;;
78931;SDS011;68331;53.362;55.932;2023-06-22T06:57:22;4.75;;;3.88;;
78931;SDS011;68331;53.362;55.932;2023-06-22T06:59:48;10.25;;;5.68;;
78931;SDS011;68331;53.362;55.932;2023-06-22T07:02:15;9.40;;;5.18;;
78931;SDS011;68331;53.362;55.932;2023-06-22T07:04:41;13.55;;;7.20;;
78931;SDS011;68331;53.362;55.932;2023-06-22T07:07:07;12.77;;;6.63;;
78931;SDS011;68331;53.362;55.932;2023-06-22T07:09:33;10.27;;;6.15;;
78931;SDS011;68331;53.362;55.932;2023-06-22T07:11:59;6.72;;;4.15;;
78931;SDS011;68331;53.362;55.932;2023-06-22T07:14:26;6.50;;;3.45;;
78931;SDS011;68331;53.362;55.932;2023-06-22T07:16:52;6.53;;;2.92;;
78931;SDS011;68331;53.362;55.932;2023-06-22T07:19:24;6.05;;;3.25;;
78931;SDS011;68331;53.362;55.932;2023-06-22T07:21:51;6.32;;;3.38;;
78931;SDS011;68331;53.362;55.932;2023-06-22T07:24:17;3.70;;;2.85;;
78931;SDS011;68331;53.362;55.932;2023-06-22T07:26:46;5.43;;;3.10;;
78931;SDS011;68331;53.362;55.932;2023-06-22T07:29:13;5.80;;;2.80;;
78931;SDS011;68331;53.362;55.932;2023-06-22T07:31:39;3.40;;;2.35;;
78931;SDS011;68331;53.362;55.932;2023-06-22T07:34:06;3.85;;;2.47;;
78931;SDS011;68331;53.362;55.932;2023-06-22T07:36:33;8.95;;;3.33;;
78931;SDS011;68331;53.362;55.932;2023-06-22T07:39:04;5.13;;;3.25;;
78931;SDS011;68331;53.362;55.932;2023-06-22T07:41:30;7.22;;;4.05;;
78931;SDS011;68331;53.362;55.932;2023-06-22T07:43:56;7.07;;;3.60;;
78931;SDS011;68331;53.362;55.932;2023-06-22T07:46:23;6.68;;;4.65;;
78931;SDS011;68331;53.362;55.932;2023-06-22T07:48:49;7.00;;;4.13;;
78931;SDS011;68331;53.362;55.932;2023-06-22T07:51:15;6.03;;;3.88;;
78931;SDS011;68331;53.362;55.932;2023-06-22T07:53:42;7.00;;;3.63;;
78931;SDS011;68331;53.362;55.932;2023-06-22T07:56:12;13.45;;;3.85;;
78931;SDS011;68331;53.362;55.932;2023-06-22T07:58:39;6.25;;;2.80;;
78931;SDS011;68331;53.362;55.932;2023-06-22T08:01:05;4.07;;;3.25;;
78931;SDS011;68331;53.362;55.932;2023-06-22T08:03:31;4.72;;;2.50;;
78931;SDS011;68331;53.362;55.932;2023-06-22T08:05:58;6.32;;;2.72;;
78931;SDS011;68331;53.362;55.932;2023-06-22T08:08:24;5.47;;;2.83;;
78931;SDS011;68331;53.362;55.932;2023-06-22T08:10:50;4.18;;;3.10;;
78931;SDS011;68331;53.362;55.932;2023-06-22T08:13:16;3.28;;;2.70;;
78931;SDS011;68331;53.362;55.932;2023-06-22T08:15:42;3.33;;;3.13;;
78931;SDS011;68331;53.362;55.932;2023-06-22T08:18:08;5.32;;;2.67;;
78931;SDS011;68331;53.362;55.932;2023-06-22T08:20:34;5.50;;;2.38;;
78931;SDS011;68331;53.362;55.932;2023-06-22T08:23:00;3.20;;;2.45;;
78931;SDS011;68331;53.362;55.932;2023-06-22T08:25:32;4.28;;;2.30;;
78931;SDS011;68331;53.362;55.932;2023-06-22T08:28:04;2.58;;;2.30;;
78931;SDS011;68331;53.362;55.932;2023-06-22T08:30:30;6.95;;;2.63;;
78931;SDS011;68331;53.362;55.932;2023-06-22T08:32:57;4.55;;;3.22;;
78931;SDS011;68331;53.362;55.932;2023-06-22T08:35:23;4.65;;;2.75;;
78931;SDS011;68331;53.362;55.932;2023-06-22T08:37:49;3.53;;;2.85;;
78931;SDS011;68331;53.362;55.932;2023-06-22T08:40:18;7.93;;;2.88;;
78931;SDS011;68331;53.362;55.932;2023-06-22T08:42:45;2.35;;;1.90;;
78931;SDS011;68331;53.362;55.932;2023-06-22T08:45:12;3.20;;;1.95;;
78931;SDS011;68331;53.362;55.932;2023-06-22T08:47:39;2.22;;;1.83;;
78931;SDS011;68331;53.362;55.932;2023-06-22T08:52:34;3.92;;;2.50;;
78931;SDS011;68331;53.362;55.932;2023-06-22T08:55:01;3.25;;;2.10;;
78931;SDS011;68331;53.362;55.932;2023-06-22T08:57:31;1.95;;;1.50;;
78931;SDS011;68331;53.362;55.932;2023-06-22T08:59:58;2.75;;;2.08;;
78931;SDS011;68331;53.362;55.932;2023-06-22T09:02:28;3.42;;;1.85;;
78931;SDS011;68331;53.362;55.932;2023-06-22T09:04:59;2.38;;;2.13;;
78931;SDS011;68331;53.362;55.932;2023-06-22T09:07:25;2.95;;;2.00;;
78931;SDS011;68331;53.362;55.932;2023-06-22T09:09:52;3.72;;;2.83;;
78931;SDS011;68331;53.362;55.932;2023-06-22T09:12:19;3.53;;;1.90;;
78931;SDS011;68331;53.362;55.932;2023-06-22T09:14:48;2.40;;;1.90;;
78931;SDS011;68331;53.362;55.932;2023-06-22T09:17:14;3.45;;;2.03;;
78931;SDS011;68331;53.362;55.932;2023-06-22T09:19:40;2.65;;;2.10;;
78931;SDS011;68331;53.362;55.932;2023-06-22T09:22:06;2.88;;;2.00;;
78931;SDS011;68331;53.362;55.932;2023-06-22T09:24:32;2.35;;;2.05;;
78931;SDS011;68331;53.362;55.932;2023-06-22T09:26:59;2.53;;;1.90;;
78931;SDS011;68331;53.362;55.932;2023-06-22T09:29:24;2.90;;;1.83;;
78931;SDS011;68331;53.362;55.932;2023-06-22T09:31:51;4.65;;;2.15;;
78931;SDS011;68331;53.362;55.932;2023-06-22T09:34:19;3.95;;;2.40;;
78931;SDS011;68331;53.362;55.932;2023-06-22T09:36:46;2.65;;;2.13;;
78931;SDS011;68331;53.362;55.932;2023-06-22T09:39:12;2.70;;;2.13;;
78931;SDS011;68331;53.362;55.932;2023-06-22T09:41:39;3.83;;;2.75;;
78931;SDS011;68331;53.362;55.932;2023-06-22T09:44:05;6.93;;;2.50;;
78931;SDS011;68331;53.362;55.932;2023-06-22T09:46:31;3.40;;;1.92;;
78931;SDS011;68331;53.362;55.932;2023-06-22T09:48:57;4.93;;;2.50;;
78931;SDS011;68331;53.362;55.932;2023-06-22T09:51:23;2.83;;;2.47;;
78931;SDS011;68331;53.362;55.932;2023-06-22T09:53:50;7.40;;;3.58;;
78931;SDS011;68331;53.362;55.932;2023-06-22T09:56:16;3.42;;;2.20;;
78931;SDS011;68331;53.362;55.932;2023-06-22T09:58:43;3.53;;;1.98;;
78931;SDS011;68331;53.362;55.932;2023-06-22T10:01:10;3.03;;;2.38;;
78931;SDS011;68331;53.362;55.932;2023-06-22T10:03:37;2.95;;;2.40;;
78931;SDS011;68331;53.362;55.932;2023-06-22T10:06:03;2.50;;;2.17;;
78931;SDS011;68331;53.362;55.932;2023-06-22T10:08:30;4.75;;;2.20;;
78931;SDS011;68331;53.362;55.932;2023-06-22T10:10:56;3.83;;;2.20;;
78931;SDS011;68331;53.362;55.932;2023-06-22T10:13:22;7.43;;;3.17;;
78931;SDS011;68331;53.362;55.932;2023-06-22T10:15:48;3.65;;;2.45;;
78931;SDS011;68331;53.362;55.932;2023-06-22T10:18:17;4.30;;;3.05;;
78931;SDS011;68331;53.362;55.932;2023-06-22T10:20:44;4.30;;;2.42;;
78931;SDS011;68331;53.362;55.932;2023-06-22T10:23:13;4.53;;;2.63;;
78931;SDS011;68331;53.362;55.932;2023-06-22T10:25:39;8.27;;;2.92;;
78931;SDS011;68331;53.362;55.932;2023-06-22T10:28:05;6.13;;;2.78;;
78931;SDS011;68331;53.362;55.932;2023-06-22T10:30:31;4.38;;;2.58;;
78931;SDS011;68331;53.362;55.932;2023-06-22T10:32:57;5.93;;;2.58;;
78931;SDS011;68331;53.362;55.932;2023-06-22T10:35:23;7.88;;;2.67;;
78931;SDS011;68331;53.362;55.932;2023-06-22T10:37:49;4.75;;;2.63;;
78931;SDS011;68331;53.362;55.932;2023-06-22T10:42:44;4.00;;;3.08;;
78931;SDS011;68331;53.362;55.932;2023-06-22T10:45:10;6.43;;;3.30;;
78931;SDS011;68331;53.362;55.932;2023-06-22T10:47:36;4.47;;;2.83;;
78931;SDS011;68331;53.362;55.932;2023-06-22T10:50:03;5.00;;;3.22;;
78931;SDS011;68331;53.362;55.932;2023-06-22T10:52:31;6.38;;;3.10;;
78931;SDS011;68331;53.362;55.932;2023-06-22T10:54:57;4.60;;;2.97;;
78931;SDS011;68331;53.362;55.932;2023-06-22T10:57:24;5.50;;;3.50;;
78931;SDS011;68331;53.362;55.932;2023-06-22T10:59:50;6.95;;;3.88;;
78931;SDS011;68331;53.362;55.932;2023-06-22T11:02:16;5.28;;;3.83;;
78931;SDS011;68331;53.362;55.932;2023-06-22T11:04:42;10.60;;;7.15;;
78931;SDS011;68331;53.362;55.932;2023-06-22T11:07:09;8.45;;;3.63;;
78931;SDS011;68331;53.362;55.932;2023-06-22T11:09:35;4.32;;;3.92;;
78931;SDS011;68331;53.362;55.932;2023-06-22T11:12:02;6.47;;;4.35;;
78931;SDS011;68331;53.362;55.932;2023-06-22T11:14:28;5.72;;;4.18;;
78931;SDS011;68331;53.362;55.932;2023-06-22T11:16:54;8.73;;;4.32;;
78931;SDS011;68331;53.362;55.932;2023-06-22T11:19:21;7.78;;;4.20;;
78931;SDS011;68331;53.362;55.932;2023-06-22T11:21:47;6.07;;;3.85;;
78931;SDS011;68331;53.362;55.932;2023-06-22T11:24:13;5.03;;;3.53;;
78931;SDS011;68331;53.362;55.932;2023-06-22T11:26:39;6.55;;;3.88;;
78931;SDS011;68331;53.362;55.932;2023-06-22T11:29:05;5.28;;;3.88;;
78931;SDS011;68331;53.362;55.932;2023-06-22T11:31:32;9.88;;;3.78;;
78931;SDS011;68331;53.362;55.932;2023-06-22T11:33:59;3.75;;;3.13;;
78931;SDS011;68331;53.362;55.932;2023-06-22T11:36:25;4.55;;;3.20;;
78931;SDS011;68331;53.362;55.932;2023-06-22T11:38:52;4.20;;;3.40;;
78931;SDS011;68331;53.362;55.932;2023-06-22T11:41:18;7.45;;;3.90;;
78931;SDS011;68331;53.362;55.932;2023-06-22T11:43:44;10.23;;;4.50;;
78931;SDS011;68331;53.362;55.932;2023-06-22T11:46:10;9.20;;;3.72;;
78931;SDS011;68331;53.362;55.932;2023-06-22T11:48:37;7.00;;;4.25;;
78931;SDS011;68331;53.362;55.932;2023-06-22T11:51:03;5.63;;;3.85;;
78931;SDS011;68331;53.362;55.932;2023-06-22T11:53:31;4.40;;;3.58;;
78931;SDS011;68331;53.362;55.932;2023-06-22T11:55:57;5.10;;;4.60;;
78931;SDS011;68331;53.362;55.932;2023-06-22T11:58:25;9.23;;;4.13;;
78931;SDS011;68331;53.362;55.932;2023-06-22T12:00:51;5.25;;;3.92;;
78931;SDS011;68331;53.362;55.932;2023-06-22T12:03:17;6.47;;;3.90;;
78931;SDS011;68331;53.362;55.932;2023-06-22T12:05:44;7.55;;;3.63;;
78931;SDS011;68331;53.362;55.932;2023-06-22T12:08:10;9.00;;;3.80;;
78931;SDS011;68331;53.362;55.932;2023-06-22T12:10:38;4.15;;;3.72;;
78931;SDS011;68331;53.362;55.932;2023-06-22T12:13:04;16.27;;;5.82;;
78931;SDS011;68331;53.362;55.932;2023-06-22T12:15:30;5.63;;;3.80;;
78931;SDS011;68331;53.362;55.932;2023-06-22T12:17:57;5.20;;;4.50;;
78931;SDS011;68331;53.362;55.932;2023-06-22T12:20:23;9.15;;;4.22;;
78931;SDS011;68331;53.362;55.932;2023-06-22T12:22:49;5.97;;;4.40;;
78931;SDS011;68331;53.362;55.932;2023-06-22T12:25:17;5.85;;;4.28;;
78931;SDS011;68331;53.362;55.932;2023-06-22T12:27:44;5.30;;;4.80;;
78931;SDS011;68331;53.362;55.932;2023-06-22T12:30:10;5.93;;;4.32;;
78931;SDS011;68331;53.362;55.932;2023-06-22T12:32:36;6.30;;;4.28;;
78931;SDS011;68331;53.362;55.932;2023-06-22T12:35:02;6.00;;;4.00;;
78931;SDS011;68331;53.362;55.932;2023-06-22T12:37:30;11.98;;;4.43;;
78931;SDS011;68331;53.362;55.932;2023-06-22T12:39:57;7.15;;;4.47;;
78931;SDS011;68331;53.362;55.932;2023-06-22T12:42:23;7.50;;;4.45;;
78931;SDS011;68331;53.362;55.932;2023-06-22T12:44:49;9.25;;;5.72;;
78931;SDS011;68331;53.362;55.932;2023-06-22T12:47:15;6.35;;;4.25;;
78931;SDS011;68331;53.362;55.932;2023-06-22T12:49:41;7.95;;;3.80;;
78931;SDS011;68331;53.362;55.932;2023-06-22T12:52:10;7.57;;;4.25;;
78931;SDS011;68331;53.362;55.932;2023-06-22T12:54:37;5.40;;;3.95;;
78931;SDS011;68331;53.362;55.932;2023-06-22T12:57:03;8.60;;;4.63;;
78931;SDS011;68331;53.362;55.932;2023-06-22T12:59:30;7.32;;;4.07;;
78931;SDS011;68331;53.362;55.932;2023-06-22T13:01:56;7.50;;;4.05;;
78931;SDS011;68331;53.362;55.932;2023-06-22T13:04:22;8.50;;;4.65;;
78931;SDS011;68331;53.362;55.932;2023-06-22T13:06:48;6.75;;;4.63;;
78931;SDS011;68331;53.362;55.932;2023-06-22T13:09:14;13.98;;;4.93;;
78931;SDS011;68331;53.362;55.932;2023-06-22T13:11:41;6.68;;;3.92;;
78931;SDS011;68331;53.362;55.932;2023-06-22T13:16:34;6.28;;;4.50;;
78931;SDS011;68331;53.362;55.932;2023-06-22T13:19:00;7.03;;;4.30;;
78931;SDS011;68331;53.362;55.932;2023-06-22T13:21:26;5.75;;;4.07;;
78931;SDS011;68331;53.362;55.932;2023-06-22T13:23:52;11.68;;;5.00;;
78931;SDS011;68331;53.362;55.932;2023-06-22T13:26:18;8.52;;;4.57;;
78931;SDS011;68331;53.362;55.932;2023-06-22T13:28:46;8.60;;;4.88;;
78931;SDS011;68331;53.362;55.932;2023-06-22T13:31:12;8.35;;;4.55;;
78931;SDS011;68331;53.362;55.932;2023-06-22T13:33:38;5.70;;;4.30;;
78931;SDS011;68331;53.362;55.932;2023-06-22T13:36:06;6.78;;;4.32;;
78931;SDS011;68331;53.362;55.932;2023-06-22T13:38:36;7.38;;;4.13;;
78931;SDS011;68331;53.362;55.932;2023-06-22T13:41:04;8.27;;;4.55;;
78931;SDS011;68331;53.362;55.932;2023-06-22T13:43:31;8.27;;;4.55;;
78931;SDS011;68331;53.362;55.932;2023-06-22T13:45:57;6.88;;;4.22;;
78931;SDS011;68331;53.362;55.932;2023-06-22T13:48:24;6.22;;;4.40;;
78931;SDS011;68331;53.362;55.932;2023-06-22T13:50:52;6.00;;;3.88;;
78931;SDS011;68331;53.362;55.932;2023-06-22T13:53:18;5.75;;;4.15;;
78931;SDS011;68331;53.362;55.932;2023-06-22T13:55:44;4.43;;;3.63;;
78931;SDS011;68331;53.362;55.932;2023-06-22T13:58:12;4.57;;;3.95;;
78931;SDS011;68331;53.362;55.932;2023-06-22T14:00:38;6.57;;;3.95;;
78931;SDS011;68331;53.362;55.932;2023-06-22T14:03:04;7.82;;;3.85;;
78931;SDS011;68331;53.362;55.932;2023-06-22T14:05:30;7.32;;;3.47;;
78931;SDS011;68331;53.362;55.932;2023-06-22T14:07:56;10.68;;;3.95;;
78931;SDS011;68331;53.362;55.932;2023-06-22T14:10:22;8.02;;;3.55;;
78931;SDS011;68331;53.362;55.932;2023-06-22T14:12:48;4.78;;;3.60;;
78931;SDS011;68331;53.362;55.932;2023-06-22T14:15:15;4.20;;;3.25;;
78931;SDS011;68331;53.362;55.932;2023-06-22T14:17:41;9.13;;;4.22;;
78931;SDS011;68331;53.362;55.932;2023-06-22T14:20:07;5.05;;;3.08;;
78931;SDS011;68331;53.362;55.932;2023-06-22T14:22:34;5.05;;;3.30;;
78931;SDS011;68331;53.362;55.932;2023-06-22T14:25:01;4.15;;;3.03;;
78931;SDS011;68331;53.362;55.932;2023-06-22T14:27:30;6.43;;;3.33;;
78931;SDS011;68331;53.362;55.932;2023-06-22T14:29:56;6.78;;;3.80;;
78931;SDS011;68331;53.362;55.932;2023-06-22T14:32:22;6.80;;;3.33;;
78931;SDS011;68331;53.362;55.932;2023-06-22T14:34:49;5.40;;;3.13;;
78931;SDS011;68331;53.362;55.932;2023-06-22T14:37:15;5.25;;;3.42;;
78931;SDS011;68331;53.362;55.932;2023-06-22T14:39:41;7.75;;;3.40;;
78931;SDS011;68331;53.362;55.932;2023-06-22T14:42:08;6.28;;;3.15;;
78931;SDS011;68331;53.362;55.932;2023-06-22T14:44:34;4.43;;;2.88;;
78931;SDS011;68331;53.362;55.932;2023-06-22T14:47:00;5.97;;;3.60;;